sensor_id;sensor_type;location;lat;lon;timestamp;pressure;altitude;pressure_sealevel;temperature;humidity
596;BME280;19946;49.306;11.350;2023-03-25T00:00:05;95707.28;;;6.92;100.00
596;BME280;19946;49.306;11.350;2023-03-25T00:03:31;95687.88;;;6.88;100.00
596;BME280;19946;49.306;11.350;2023-03-25T00:06:34;95687.47;;;6.92;100.00
596;BME280;19946;49.306;11.350;2023-03-25T00:09:35;95685.53;;;6.85;100.00
596;BME280;19946;49.306;11.350;2023-03-25T00:12:35;95656.41;;;6.64;100.00
596;BME280;19946;49.306;11.350;2023-03-25T00:15:36;95686.28;;;6.76;100.00
596;BME280;19946;49.306;11.350;2023-03-25T00:18:36;95693.06;;;6.77;100.00
596;BME280;19946;49.306;11.350;2023-03-25T00:21:37;95659.22;;;6.60;100.00
596;BME280;19946;49.306;11.350;2023-03-25T00:24:38;95686.41;;;6.74;100.00
596;BME280;19946;49.306;11.350;2023-03-25T00:27:39;95672.19;;;6.70;100.00
596;BME280;19946;49.306;11.350;2023-03-25T00:30:40;95650.03;;;6.58;100.00
596;BME280;19946;49.306;11.350;2023-03-25T00:33:41;95663.94;;;6.55;100.00
596;BME280;19946;49.306;11.350;2023-03-25T00:36:42;95679.81;;;6.60;100.00
596;BME280;19946;49.306;11.350;2023-03-25T00:39:43;95670.53;;;6.48;100.00
596;BME280;19946;49.306;11.350;2023-03-25T00:42:44;95660.16;;;6.39;100.00
596;BME280;19946;49.306;11.350;2023-03-25T00:45:54;95668.16;;;6.56;100.00
596;BME280;19946;49.306;11.350;2023-03-25T00:48:55;95681.84;;;6.57;100.00
596;BME280;19946;49.306;11.350;2023-03-25T00:51:56;95658.28;;;6.41;100.00
596;BME280;19946;49.306;11.350;2023-03-25T00:54:56;95671.28;;;6.60;100.00
596;BME280;19946;49.306;11.350;2023-03-25T00:57:56;95625.72;;;6.30;100.00
596;BME280;19946;49.306;11.350;2023-03-25T01:00:57;95650.91;;;6.47;100.00
596;BME280;19946;49.306;11.350;2023-03-25T01:03:58;95668.50;;;6.52;100.00
596;BME280;19946;49.306;11.350;2023-03-25T01:06:59;95682.03;;;6.65;100.00
596;BME280;19946;49.306;11.350;2023-03-25T01:10:01;95671.91;;;6.52;100.00
596;BME280;19946;49.306;11.350;2023-03-25T01:13:01;95695.00;;;6.64;100.00
596;BME280;19946;49.306;11.350;2023-03-25T01:16:05;95668.94;;;6.36;100.00
596;BME280;19946;49.306;11.350;2023-03-25T01:19:06;95691.16;;;6.37;100.00
596;BME280;19946;49.306;11.350;2023-03-25T01:22:06;95684.03;;;6.30;100.00
596;BME280;19946;49.306;11.350;2023-03-25T01:25:07;95698.91;;;6.26;100.00
596;BME280;19946;49.306;11.350;2023-03-25T01:28:08;95680.94;;;6.15;100.00
596;BME280;19946;49.306;11.350;2023-03-25T01:31:10;95668.56;;;6.09;100.00
596;BME280;19946;49.306;11.350;2023-03-25T01:34:13;95656.78;;;5.95;100.00
596;BME280;19946;49.306;11.350;2023-03-25T01:37:13;95647.94;;;5.88;100.00
596;BME280;19946;49.306;11.350;2023-03-25T01:40:19;95667.06;;;5.95;100.00
596;BME280;19946;49.306;11.350;2023-03-25T01:43:20;95656.34;;;5.90;100.00
596;BME280;19946;49.306;11.350;2023-03-25T01:46:21;95651.41;;;5.87;100.00
596;BME280;19946;49.306;11.350;2023-03-25T01:49:25;95644.13;;;5.71;100.00
596;BME280;19946;49.306;11.350;2023-03-25T01:52:29;95656.66;;;5.85;100.00
596;BME280;19946;49.306;11.350;2023-03-25T01:55:31;95642.22;;;5.73;100.00
596;BME280;19946;49.306;11.350;2023-03-25T01:58:34;95634.41;;;5.64;100.00
596;BME280;19946;49.306;11.350;2023-03-25T02:01:35;95622.19;;;5.56;100.00
596;BME280;19946;49.306;11.350;2023-03-25T02:04:50;95655.31;;;5.81;100.00
596;BME280;19946;49.306;11.350;2023-03-25T02:07:58;95613.53;;;5.57;100.00
596;BME280;19946;49.306;11.350;2023-03-25T02:11:02;95610.47;;;5.63;100.00
596;BME280;19946;49.306;11.350;2023-03-25T02:14:06;95594.16;;;5.53;100.00
596;BME280;19946;49.306;11.350;2023-03-25T02:17:37;95635.09;;;5.88;100.00
596;BME280;19946;49.306;11.350;2023-03-25T02:34:32;95633.94;;;5.92;100.00
596;BME280;19946;49.306;11.350;2023-03-25T02:40:52;95645.97;;;5.92;100.00
596;BME280;19946;49.306;11.350;2023-03-25T02:44:05;95647.09;;;5.87;100.00
596;BME280;19946;49.306;11.350;2023-03-25T02:47:14;95647.09;;;5.87;100.00
596;BME280;19946;49.306;11.350;2023-03-25T02:50:20;95601.41;;;5.59;100.00
596;BME280;19946;49.306;11.350;2023-03-25T02:53:26;95648.84;;;5.87;100.00
596;BME280;19946;49.306;11.350;2023-03-25T02:56:27;95611.56;;;5.61;100.00
596;BME280;19946;49.306;11.350;2023-03-25T02:59:33;95617.13;;;5.66;100.00
596;BME280;19946;49.306;11.350;2023-03-25T03:02:37;95641.25;;;5.85;100.00
596;BME280;19946;49.306;11.350;2023-03-25T03:05:45;95628.69;;;5.82;100.00
596;BME280;19946;49.306;11.350;2023-03-25T03:12:11;95651.91;;;5.92;100.00
596;BME280;19946;49.306;11.350;2023-03-25T03:15:45;95643.94;;;5.95;100.00
596;BME280;19946;49.306;11.350;2023-03-25T03:25:33;95608.00;;;5.84;100.00
596;BME280;19946;49.306;11.350;2023-03-25T03:28:44;95626.34;;;5.91;100.00
596;BME280;19946;49.306;11.350;2023-03-25T03:31:51;95631.47;;;5.91;100.00
596;BME280;19946;49.306;11.350;2023-03-25T03:34:56;95645.84;;;5.93;100.00
596;BME280;19946;49.306;11.350;2023-03-25T03:38:02;95635.69;;;5.92;100.00
596;BME280;19946;49.306;11.350;2023-03-25T03:41:07;95653.78;;;5.90;100.00
596;BME280;19946;49.306;11.350;2023-03-25T03:44:15;95641.41;;;5.84;100.00
596;BME280;19946;49.306;11.350;2023-03-25T03:47:23;95631.28;;;5.71;100.00
596;BME280;19946;49.306;11.350;2023-03-25T03:50:30;95656.56;;;5.87;100.00
596;BME280;19946;49.306;11.350;2023-03-25T03:53:36;95632.91;;;5.72;100.00
596;BME280;19946;49.306;11.350;2023-03-25T03:56:41;95639.66;;;5.73;100.00
596;BME280;19946;49.306;11.350;2023-03-25T03:59:57;95639.66;;;5.73;100.00
596;BME280;19946;49.306;11.350;2023-03-25T04:03:23;95633.13;;;5.69;100.00
596;BME280;19946;49.306;11.350;2023-03-25T04:06:38;95640.22;;;5.77;100.00
596;BME280;19946;49.306;11.350;2023-03-25T04:10:11;95663.38;;;5.88;100.00
596;BME280;19946;49.306;11.350;2023-03-25T04:13:14;95642.09;;;5.75;100.00
596;BME280;19946;49.306;11.350;2023-03-25T04:16:16;95640.13;;;5.90;100.00
596;BME280;19946;49.306;11.350;2023-03-25T04:19:17;95639.06;;;5.92;100.00
596;BME280;19946;49.306;11.350;2023-03-25T04:22:18;95635.78;;;5.79;100.00
596;BME280;19946;49.306;11.350;2023-03-25T04:25:18;95659.25;;;5.97;100.00
596;BME280;19946;49.306;11.350;2023-03-25T04:28:20;95652.16;;;5.78;100.00
596;BME280;19946;49.306;11.350;2023-03-25T04:31:23;95634.44;;;5.53;100.00
596;BME280;19946;49.306;11.350;2023-03-25T04:34:26;95638.53;;;5.44;100.00
596;BME280;19946;49.306;11.350;2023-03-25T04:37:27;95685.44;;;5.46;100.00
596;BME280;19946;49.306;11.350;2023-03-25T04:40:27;95660.25;;;5.29;100.00
596;BME280;19946;49.306;11.350;2023-03-25T04:43:27;95691.75;;;5.42;100.00
596;BME280;19946;49.306;11.350;2023-03-25T04:46:27;95638.78;;;5.07;100.00
596;BME280;19946;49.306;11.350;2023-03-25T04:49:28;95696.44;;;5.37;100.00
596;BME280;19946;49.306;11.350;2023-03-25T04:52:28;95665.13;;;5.21;100.00
596;BME280;19946;49.306;11.350;2023-03-25T04:55:29;95690.25;;;5.39;100.00
596;BME280;19946;49.306;11.350;2023-03-25T04:58:30;95653.13;;;5.21;100.00
596;BME280;19946;49.306;11.350;2023-03-25T05:01:30;95657.09;;;5.25;100.00
596;BME280;19946;49.306;11.350;2023-03-25T05:04:31;95681.25;;;5.34;100.00
596;BME280;19946;49.306;11.350;2023-03-25T05:07:32;95685.78;;;5.30;100.00
596;BME280;19946;49.306;11.350;2023-03-25T05:10:33;95697.00;;;5.29;100.00
596;BME280;19946;49.306;11.350;2023-03-25T05:13:35;95690.81;;;5.21;100.00
596;BME280;19946;49.306;11.350;2023-03-25T05:16:35;95674.00;;;5.05;100.00
596;BME280;19946;49.306;11.350;2023-03-25T05:19:36;95703.91;;;5.29;100.00
596;BME280;19946;49.306;11.350;2023-03-25T05:22:37;95709.84;;;5.29;100.00
596;BME280;19946;49.306;11.350;2023-03-25T05:25:38;95701.44;;;5.27;100.00
596;BME280;19946;49.306;11.350;2023-03-25T05:28:40;95718.38;;;5.30;100.00
596;BME280;19946;49.306;11.350;2023-03-25T05:31:41;95709.16;;;5.27;100.00
596;BME280;19946;49.306;11.350;2023-03-25T05:34:45;95716.47;;;5.32;100.00
596;BME280;19946;49.306;11.350;2023-03-25T05:37:48;95669.91;;;5.03;100.00
596;BME280;19946;49.306;11.350;2023-03-25T05:40:49;95712.25;;;5.20;100.00
596;BME280;19946;49.306;11.350;2023-03-25T05:43:49;95728.38;;;5.33;100.00
596;BME280;19946;49.306;11.350;2023-03-25T05:46:51;95730.03;;;5.34;100.00
596;BME280;19946;49.306;11.350;2023-03-25T05:49:52;95704.22;;;5.24;100.00
596;BME280;19946;49.306;11.350;2023-03-25T05:52:53;95732.16;;;5.40;100.00
596;BME280;19946;49.306;11.350;2023-03-25T05:55:54;95710.78;;;5.28;100.00
596;BME280;19946;49.306;11.350;2023-03-25T05:58:54;95712.63;;;5.26;100.00
596;BME280;19946;49.306;11.350;2023-03-25T06:01:56;95738.56;;;5.45;100.00
596;BME280;19946;49.306;11.350;2023-03-25T06:04:56;95689.75;;;5.12;100.00
596;BME280;19946;49.306;11.350;2023-03-25T06:07:57;95710.78;;;5.28;100.00
596;BME280;19946;49.306;11.350;2023-03-25T06:10:57;95737.94;;;5.31;100.00
596;BME280;19946;49.306;11.350;2023-03-25T06:13:58;95741.81;;;5.36;100.00
596;BME280;19946;49.306;11.350;2023-03-25T06:16:58;95759.44;;;5.30;100.00
596;BME280;19946;49.306;11.350;2023-03-25T06:19:58;95737.13;;;5.08;100.00
596;BME280;19946;49.306;11.350;2023-03-25T06:22:59;95742.28;;;5.19;100.00
596;BME280;19946;49.306;11.350;2023-03-25T06:26:01;95761.78;;;5.44;100.00
596;BME280;19946;49.306;11.350;2023-03-25T06:29:03;95737.41;;;5.38;100.00
596;BME280;19946;49.306;11.350;2023-03-25T06:32:04;95753.63;;;5.50;100.00
596;BME280;19946;49.306;11.350;2023-03-25T06:35:06;95743.34;;;5.39;100.00
596;BME280;19946;49.306;11.350;2023-03-25T06:38:09;95751.28;;;5.47;100.00
596;BME280;19946;49.306;11.350;2023-03-25T06:41:25;95707.75;;;5.34;100.00
596;BME280;19946;49.306;11.350;2023-03-25T06:44:44;95733.53;;;5.44;100.00
596;BME280;19946;49.306;11.350;2023-03-25T06:48:00;95759.00;;;5.58;100.00
596;BME280;19946;49.306;11.350;2023-03-25T06:51:00;95749.53;;;5.59;100.00
596;BME280;19946;49.306;11.350;2023-03-25T06:54:01;95763.31;;;5.58;100.00
596;BME280;19946;49.306;11.350;2023-03-25T06:57:01;95753.38;;;5.75;100.00
596;BME280;19946;49.306;11.350;2023-03-25T07:00:01;95729.34;;;5.65;100.00
596;BME280;19946;49.306;11.350;2023-03-25T07:03:02;95696.75;;;5.32;100.00
596;BME280;19946;49.306;11.350;2023-03-25T07:06:04;95739.84;;;5.51;100.00
596;BME280;19946;49.306;11.350;2023-03-25T07:09:05;95744.41;;;5.59;100.00
596;BME280;19946;49.306;11.350;2023-03-25T07:12:06;95763.78;;;5.74;100.00
596;BME280;19946;49.306;11.350;2023-03-25T07:15:07;95773.25;;;5.96;100.00
596;BME280;19946;49.306;11.350;2023-03-25T07:18:09;95736.22;;;5.76;100.00
596;BME280;19946;49.306;11.350;2023-03-25T07:21:09;95763.16;;;6.37;100.00
596;BME280;19946;49.306;11.350;2023-03-25T07:24:10;95763.03;;;6.28;100.00
596;BME280;19946;49.306;11.350;2023-03-25T07:27:11;95753.22;;;6.33;100.00
596;BME280;19946;49.306;11.350;2023-03-25T07:30:12;95764.66;;;6.40;100.00
596;BME280;19946;49.306;11.350;2023-03-25T07:33:13;95714.38;;;6.15;100.00
596;BME280;19946;49.306;11.350;2023-03-25T07:36:13;95764.06;;;6.47;100.00
596;BME280;19946;49.306;11.350;2023-03-25T07:39:13;95716.56;;;6.08;100.00
596;BME280;19946;49.306;11.350;2023-03-25T07:42:14;95715.50;;;6.22;100.00
596;BME280;19946;49.306;11.350;2023-03-25T07:45:33;95714.63;;;6.44;100.00
596;BME280;19946;49.306;11.350;2023-03-25T07:48:33;95761.09;;;6.84;100.00
596;BME280;19946;49.306;11.350;2023-03-25T07:51:33;95742.63;;;6.58;100.00
596;BME280;19946;49.306;11.350;2023-03-25T07:54:34;95715.06;;;6.06;100.00
596;BME280;19946;49.306;11.350;2023-03-25T07:57:39;95769.09;;;6.49;100.00
596;BME280;19946;49.306;11.350;2023-03-25T08:00:40;95773.66;;;6.45;100.00
596;BME280;19946;49.306;11.350;2023-03-25T08:03:40;95783.25;;;6.43;100.00
596;BME280;19946;49.306;11.350;2023-03-25T08:06:41;95755.66;;;6.45;100.00
596;BME280;19946;49.306;11.350;2023-03-25T08:09:41;95778.91;;;6.44;100.00
596;BME280;19946;49.306;11.350;2023-03-25T08:12:43;95737.72;;;6.23;100.00
596;BME280;19946;49.306;11.350;2023-03-25T08:15:43;95753.75;;;6.58;100.00
596;BME280;19946;49.306;11.350;2023-03-25T08:18:43;95776.41;;;7.17;100.00
596;BME280;19946;49.306;11.350;2023-03-25T08:21:44;95772.44;;;7.55;100.00
596;BME280;19946;49.306;11.350;2023-03-25T08:24:44;95778.16;;;7.38;100.00
596;BME280;19946;49.306;11.350;2023-03-25T08:27:44;95778.03;;;7.69;100.00
596;BME280;19946;49.306;11.350;2023-03-25T08:30:45;95756.56;;;7.90;100.00
596;BME280;19946;49.306;11.350;2023-03-25T08:33:45;95769.50;;;7.69;100.00
596;BME280;19946;49.306;11.350;2023-03-25T08:36:46;95744.88;;;7.76;100.00
596;BME280;19946;49.306;11.350;2023-03-25T08:39:47;95771.56;;;7.75;100.00
596;BME280;19946;49.306;11.350;2023-03-25T08:42:49;95701.66;;;7.59;100.00
596;BME280;19946;49.306;11.350;2023-03-25T08:45:49;95750.72;;;7.57;100.00
596;BME280;19946;49.306;11.350;2023-03-25T08:48:50;95739.22;;;8.01;100.00
596;BME280;19946;49.306;11.350;2023-03-25T08:51:50;95744.53;;;8.40;100.00
596;BME280;19946;49.306;11.350;2023-03-25T08:54:50;95757.31;;;8.90;100.00
596;BME280;19946;49.306;11.350;2023-03-25T08:57:51;95755.41;;;8.13;100.00
596;BME280;19946;49.306;11.350;2023-03-25T09:00:53;95761.69;;;9.08;100.00
596;BME280;19946;49.306;11.350;2023-03-25T09:03:54;95736.53;;;9.57;100.00
596;BME280;19946;49.306;11.350;2023-03-25T09:06:56;95753.44;;;9.51;100.00
596;BME280;19946;49.306;11.350;2023-03-25T09:09:57;95729.44;;;8.45;100.00
596;BME280;19946;49.306;11.350;2023-03-25T09:12:57;95733.53;;;7.98;100.00
596;BME280;19946;49.306;11.350;2023-03-25T09:15:58;95751.88;;;8.04;100.00
596;BME280;19946;49.306;11.350;2023-03-25T09:18:58;95718.66;;;7.71;100.00
596;BME280;19946;49.306;11.350;2023-03-25T09:21:59;95744.09;;;8.35;100.00
596;BME280;19946;49.306;11.350;2023-03-25T09:25:00;95705.66;;;8.99;100.00
596;BME280;19946;49.306;11.350;2023-03-25T09:28:00;95729.53;;;9.40;100.00
596;BME280;19946;49.306;11.350;2023-03-25T09:31:01;95717.06;;;9.16;100.00
596;BME280;19946;49.306;11.350;2023-03-25T09:34:01;95733.28;;;8.79;100.00
596;BME280;19946;49.306;11.350;2023-03-25T09:37:02;95752.66;;;8.45;100.00
596;BME280;19946;49.306;11.350;2023-03-25T09:40:04;95716.38;;;8.27;100.00
596;BME280;19946;49.306;11.350;2023-03-25T09:46:25;95746.56;;;8.56;100.00
596;BME280;19946;49.306;11.350;2023-03-25T09:49:37;95742.50;;;8.82;100.00
596;BME280;19946;49.306;11.350;2023-03-25T09:55:47;95717.19;;;9.24;100.00
596;BME280;19946;49.306;11.350;2023-03-25T09:58:50;95717.22;;;9.05;100.00
596;BME280;19946;49.306;11.350;2023-03-25T10:02:04;95769.56;;;9.17;100.00
596;BME280;19946;49.306;11.350;2023-03-25T10:05:15;95751.19;;;8.12;100.00
596;BME280;19946;49.306;11.350;2023-03-25T10:15:33;95745.63;;;8.47;100.00
596;BME280;19946;49.306;11.350;2023-03-25T10:22:16;95707.84;;;8.65;100.00
596;BME280;19946;49.306;11.350;2023-03-25T10:25:21;95725.53;;;9.55;100.00
596;BME280;19946;49.306;11.350;2023-03-25T10:28:30;95668.94;;;9.52;100.00
596;BME280;19946;49.306;11.350;2023-03-25T10:31:36;95680.84;;;10.00;100.00
596;BME280;19946;49.306;11.350;2023-03-25T10:34:43;95671.16;;;10.29;100.00
596;BME280;19946;49.306;11.350;2023-03-25T10:37:48;95662.31;;;9.49;100.00
596;BME280;19946;49.306;11.350;2023-03-25T10:40:58;95700.47;;;9.09;100.00
596;BME280;19946;49.306;11.350;2023-03-25T10:44:07;95690.47;;;8.77;100.00
596;BME280;19946;49.306;11.350;2023-03-25T10:47:14;95690.63;;;8.85;100.00
596;BME280;19946;49.306;11.350;2023-03-25T10:50:17;95699.19;;;8.76;100.00
596;BME280;19946;49.306;11.350;2023-03-25T10:53:22;95703.31;;;8.19;100.00
596;BME280;19946;49.306;11.350;2023-03-25T10:56:33;95656.94;;;8.58;100.00
596;BME280;19946;49.306;11.350;2023-03-25T10:59:55;95684.69;;;9.22;100.00
596;BME280;19946;49.306;11.350;2023-03-25T11:02:56;95636.94;;;8.79;100.00
596;BME280;19946;49.306;11.350;2023-03-25T11:05:57;95639.19;;;9.11;100.00
596;BME280;19946;49.306;11.350;2023-03-25T11:12:07;95631.75;;;8.89;100.00
596;BME280;19946;49.306;11.350;2023-03-25T11:15:12;95649.31;;;8.56;100.00
596;BME280;19946;49.306;11.350;2023-03-25T11:21:19;95667.88;;;7.52;100.00
596;BME280;19946;49.306;11.350;2023-03-25T11:24:31;95645.44;;;6.62;100.00
596;BME280;19946;49.306;11.350;2023-03-25T11:27:43;95688.19;;;6.10;100.00
596;BME280;19946;49.306;11.350;2023-03-25T11:31:06;95730.63;;;6.04;100.00
596;BME280;19946;49.306;11.350;2023-03-25T11:37:16;95711.34;;;5.65;100.00
596;BME280;19946;49.306;11.350;2023-03-25T11:40:17;95702.13;;;5.74;100.00
596;BME280;19946;49.306;11.350;2023-03-25T11:43:20;95704.19;;;6.13;100.00
596;BME280;19946;49.306;11.350;2023-03-25T11:46:22;95688.72;;;5.93;100.00
596;BME280;19946;49.306;11.350;2023-03-25T11:49:23;95672.81;;;5.99;100.00
596;BME280;19946;49.306;11.350;2023-03-25T11:52:31;95698.06;;;6.37;100.00
596;BME280;19946;49.306;11.350;2023-03-25T11:55:49;95669.78;;;6.57;100.00
596;BME280;19946;49.306;11.350;2023-03-25T11:58:57;95677.56;;;7.09;100.00
596;BME280;19946;49.306;11.350;2023-03-25T12:02:02;95665.44;;;7.20;100.00
596;BME280;19946;49.306;11.350;2023-03-25T12:05:10;95666.34;;;6.89;100.00
596;BME280;19946;49.306;11.350;2023-03-25T12:08:16;95646.41;;;6.81;100.00
596;BME280;19946;49.306;11.350;2023-03-25T12:11:23;95674.81;;;6.80;100.00
596;BME280;19946;49.306;11.350;2023-03-25T12:14:50;95661.50;;;6.75;100.00
596;BME280;19946;49.306;11.350;2023-03-25T12:18:02;95651.16;;;6.65;100.00
596;BME280;19946;49.306;11.350;2023-03-25T12:21:19;95657.13;;;6.86;100.00
596;BME280;19946;49.306;11.350;2023-03-25T12:30:54;95585.09;;;7.36;100.00
596;BME280;19946;49.306;11.350;2023-03-25T12:34:20;95640.19;;;8.04;100.00
596;BME280;19946;49.306;11.350;2023-03-25T12:37:33;95601.16;;;7.49;100.00
596;BME280;19946;49.306;11.350;2023-03-25T12:40:45;95596.00;;;7.49;100.00
596;BME280;19946;49.306;11.350;2023-03-25T12:44:03;95620.91;;;7.89;100.00
596;BME280;19946;49.306;11.350;2023-03-25T12:50:22;95612.00;;;8.22;100.00
596;BME280;19946;49.306;11.350;2023-03-25T12:53:36;95619.22;;;9.03;100.00
596;BME280;19946;49.306;11.350;2023-03-25T12:56:47;95601.78;;;9.15;100.00
596;BME280;19946;49.306;11.350;2023-03-25T13:00:06;95630.44;;;8.85;100.00
596;BME280;19946;49.306;11.350;2023-03-25T13:07:00;95590.28;;;8.53;100.00
596;BME280;19946;49.306;11.350;2023-03-25T13:10:17;95604.38;;;8.49;100.00
596;BME280;19946;49.306;11.350;2023-03-25T13:13:19;95588.06;;;8.58;100.00
596;BME280;19946;49.306;11.350;2023-03-25T13:16:26;95599.22;;;9.15;100.00
596;BME280;19946;49.306;11.350;2023-03-25T13:19:30;95602.69;;;9.24;100.00
596;BME280;19946;49.306;11.350;2023-03-25T13:22:36;95599.72;;;8.82;100.00
596;BME280;19946;49.306;11.350;2023-03-25T13:25:56;95586.44;;;8.57;100.00
596;BME280;19946;49.306;11.350;2023-03-25T13:29:01;95592.69;;;8.45;100.00
596;BME280;19946;49.306;11.350;2023-03-25T13:32:10;95591.63;;;8.19;100.00
596;BME280;19946;49.306;11.350;2023-03-25T13:35:29;95653.19;;;8.02;100.00
596;BME280;19946;49.306;11.350;2023-03-25T13:38:42;95637.22;;;7.19;100.00
596;BME280;19946;49.306;11.350;2023-03-25T13:41:49;95642.91;;;6.71;100.00
596;BME280;19946;49.306;11.350;2023-03-25T13:44:54;95644.41;;;6.94;100.00
596;BME280;19946;49.306;11.350;2023-03-25T13:48:16;95617.81;;;7.15;100.00
596;BME280;19946;49.306;11.350;2023-03-25T13:51:18;95643.13;;;7.30;100.00
596;BME280;19946;49.306;11.350;2023-03-25T13:54:37;95644.94;;;7.49;100.00
596;BME280;19946;49.306;11.350;2023-03-25T13:58:10;95639.75;;;7.40;100.00
596;BME280;19946;49.306;11.350;2023-03-25T14:01:21;95645.28;;;7.65;100.00
596;BME280;19946;49.306;11.350;2023-03-25T14:04:45;95624.00;;;7.83;100.00
596;BME280;19946;49.306;11.350;2023-03-25T14:08:35;95633.81;;;8.08;100.00
596;BME280;19946;49.306;11.350;2023-03-25T14:11:39;95601.22;;;7.78;100.00
596;BME280;19946;49.306;11.350;2023-03-25T14:14:53;95612.31;;;7.69;100.00
596;BME280;19946;49.306;11.350;2023-03-25T14:17:55;95611.84;;;7.45;100.00
596;BME280;19946;49.306;11.350;2023-03-25T14:24:24;95695.88;;;6.21;100.00
596;BME280;19946;49.306;11.350;2023-03-25T14:27:31;95719.31;;;5.51;100.00
596;BME280;19946;49.306;11.350;2023-03-25T14:30:34;95694.91;;;5.34;100.00
596;BME280;19946;49.306;11.350;2023-03-25T14:43:42;95573.66;;;6.17;100.00
596;BME280;19946;49.306;11.350;2023-03-25T14:46:45;95655.94;;;6.70;100.00
596;BME280;19946;49.306;11.350;2023-03-25T14:49:51;95651.97;;;6.66;100.00
596;BME280;19946;49.306;11.350;2023-03-25T14:53:03;95665.97;;;6.73;100.00
596;BME280;19946;49.306;11.350;2023-03-25T14:56:07;95636.41;;;6.67;100.00
596;BME280;19946;49.306;11.350;2023-03-25T14:59:14;95628.31;;;6.72;100.00
596;BME280;19946;49.306;11.350;2023-03-25T15:02:23;95652.78;;;6.87;100.00
596;BME280;19946;49.306;11.350;2023-03-25T15:05:27;95640.34;;;6.71;100.00
596;BME280;19946;49.306;11.350;2023-03-25T15:08:38;95666.59;;;6.86;100.00
596;BME280;19946;49.306;11.350;2023-03-25T15:11:51;95659.56;;;6.88;100.00
596;BME280;19946;49.306;11.350;2023-03-25T15:15:07;95653.47;;;6.89;100.00
596;BME280;19946;49.306;11.350;2023-03-25T15:18:08;95628.94;;;6.85;100.00
596;BME280;19946;49.306;11.350;2023-03-25T15:24:11;95650.88;;;7.10;100.00
596;BME280;19946;49.306;11.350;2023-03-25T15:27:25;95667.25;;;7.09;100.00
596;BME280;19946;49.306;11.350;2023-03-25T15:34:36;95662.06;;;6.99;100.00
596;BME280;19946;49.306;11.350;2023-03-25T15:38:06;95636.28;;;6.89;100.00
596;BME280;19946;49.306;11.350;2023-03-25T15:41:30;95661.13;;;7.00;100.00
596;BME280;19946;49.306;11.350;2023-03-25T15:51:10;95663.69;;;7.00;100.00
596;BME280;19946;49.306;11.350;2023-03-25T15:57:46;95626.09;;;6.88;100.00
596;BME280;19946;49.306;11.350;2023-03-25T16:00:51;95642.41;;;6.98;100.00
596;BME280;19946;49.306;11.350;2023-03-25T16:04:01;95641.22;;;7.02;100.00
596;BME280;19946;49.306;11.350;2023-03-25T16:07:04;95631.63;;;6.83;100.00
596;BME280;19946;49.306;11.350;2023-03-25T16:10:17;95647.03;;;7.04;100.00
596;BME280;19946;49.306;11.350;2023-03-25T16:13:21;95628.19;;;7.04;100.00
596;BME280;19946;49.306;11.350;2023-03-25T16:16:27;95651.88;;;7.18;100.00
596;BME280;19946;49.306;11.350;2023-03-25T16:19:40;95629.75;;;7.16;100.00
596;BME280;19946;49.306;11.350;2023-03-25T16:22:41;95634.91;;;7.16;100.00
596;BME280;19946;49.306;11.350;2023-03-25T16:25:43;95638.50;;;7.24;100.00
596;BME280;19946;49.306;11.350;2023-03-25T16:28:44;95652.44;;;7.22;100.00
596;BME280;19946;49.306;11.350;2023-03-25T16:31:57;95649.56;;;7.25;100.00
596;BME280;19946;49.306;11.350;2023-03-25T16:34:58;95641.72;;;7.26;100.00
596;BME280;19946;49.306;11.350;2023-03-25T16:37:59;95616.38;;;7.22;100.00
596;BME280;19946;49.306;11.350;2023-03-25T16:41:02;95637.19;;;7.40;100.00
596;BME280;19946;49.306;11.350;2023-03-25T16:47:32;95648.22;;;7.51;100.00
596;BME280;19946;49.306;11.350;2023-03-25T16:50:33;95638.38;;;7.36;100.00
596;BME280;19946;49.306;11.350;2023-03-25T16:53:35;95654.50;;;7.38;100.00
596;BME280;19946;49.306;11.350;2023-03-25T16:56:39;95637.53;;;7.25;100.00
596;BME280;19946;49.306;11.350;2023-03-25T16:59:44;95658.53;;;7.61;100.00
596;BME280;19946;49.306;11.350;2023-03-25T17:02:47;95676.47;;;7.72;100.00
596;BME280;19946;49.306;11.350;2023-03-25T17:05:54;95671.00;;;7.56;100.00
596;BME280;19946;49.306;11.350;2023-03-25T17:08:58;95651.16;;;7.47;100.00
596;BME280;19946;49.306;11.350;2023-03-25T17:12:00;95676.47;;;7.72;100.00
596;BME280;19946;49.306;11.350;2023-03-25T17:15:05;95655.97;;;7.61;100.00
596;BME280;19946;49.306;11.350;2023-03-25T17:18:12;95663.28;;;7.56;100.00
596;BME280;19946;49.306;11.350;2023-03-25T17:21:21;95648.88;;;7.44;100.00
596;BME280;19946;49.306;11.350;2023-03-25T17:24:25;95678.31;;;7.51;100.00
596;BME280;19946;49.306;11.350;2023-03-25T17:27:33;95660.97;;;7.53;100.00
596;BME280;19946;49.306;11.350;2023-03-25T17:30:40;95681.88;;;7.29;100.00
596;BME280;19946;49.306;11.350;2023-03-25T17:33:47;95665.69;;;7.17;100.00
596;BME280;19946;49.306;11.350;2023-03-25T17:36:51;95665.88;;;7.05;100.00
596;BME280;19946;49.306;11.350;2023-03-25T17:40:00;95659.03;;;6.94;100.00
596;BME280;19946;49.306;11.350;2023-03-25T17:43:00;95668.09;;;6.88;100.00
596;BME280;19946;49.306;11.350;2023-03-25T17:46:03;95707.63;;;7.29;100.00
596;BME280;19946;49.306;11.350;2023-03-25T17:49:13;95685.16;;;7.10;100.00
596;BME280;19946;49.306;11.350;2023-03-25T17:52:14;95707.41;;;7.11;100.00
596;BME280;19946;49.306;11.350;2023-03-25T17:55:15;95716.41;;;7.06;100.00
596;BME280;19946;49.306;11.350;2023-03-25T17:58:16;95697.47;;;6.86;100.00
596;BME280;19946;49.306;11.350;2023-03-25T18:01:16;95696.91;;;6.82;100.00
596;BME280;19946;49.306;11.350;2023-03-25T18:04:18;95691.50;;;6.85;100.00
596;BME280;19946;49.306;11.350;2023-03-25T18:07:20;95711.22;;;6.96;100.00
596;BME280;19946;49.306;11.350;2023-03-25T18:10:21;95706.00;;;6.86;100.00
596;BME280;19946;49.306;11.350;2023-03-25T18:13:23;95713.53;;;6.78;100.00